createdAt,value
2022-12-01T00:01:16.594Z,13.70
2022-12-01T00:03:44.183Z,12.75
2022-12-01T00:06:16.967Z,11.90
2022-12-01T00:09:03.491Z,10.73
2022-12-01T00:11:30.346Z,10.43
2022-12-01T00:13:57.631Z,16.10
2022-12-01T00:16:24.947Z,9.50
2022-12-01T00:18:53.663Z,9.18
2022-12-01T00:21:23.253Z,9.02
2022-12-01T00:23:53.220Z,10.93
2022-12-01T00:26:20.894Z,10.57
2022-12-01T00:28:58.740Z,12.05
2022-12-01T00:31:26.515Z,9.52
2022-12-01T00:33:54.160Z,9.15
2022-12-01T00:36:22.103Z,10.18
2022-12-01T00:38:52.689Z,8.95
2022-12-01T00:41:19.448Z,9.48
2022-12-01T00:43:46.319Z,10.18
2022-12-01T00:46:13.714Z,8.48
2022-12-01T00:48:40.995Z,9.55
2022-12-01T00:51:07.793Z,9.38
2022-12-01T00:53:34.521Z,13.18
2022-12-01T00:56:01.697Z,9.07
2022-12-01T00:58:28.952Z,10.88
2022-12-01T01:01:00.683Z,8.73
2022-12-01T01:03:28.681Z,8.75
2022-12-01T01:05:55.637Z,9.38
2022-12-01T01:08:22.619Z,9.13
2022-12-01T01:10:49.962Z,8.82
2022-12-01T01:13:17.596Z,8.32
2022-12-01T01:15:44.718Z,9.00
2022-12-01T01:18:14.261Z,9.45
2022-12-01T01:20:41.401Z,10.40
2022-12-01T01:23:09.052Z,9.82
2022-12-01T01:25:35.882Z,10.60
2022-12-01T01:28:02.681Z,10.48
2022-12-01T01:30:29.601Z,9.70
2022-12-01T01:32:56.370Z,10.70
2022-12-01T01:35:23.591Z,10.35
2022-12-01T01:37:50.930Z,11.07
2022-12-01T01:40:18.265Z,9.80
2022-12-01T01:42:45.077Z,8.70
2022-12-01T01:45:30.164Z,10.65
2022-12-01T01:47:59.735Z,9.45
2022-12-01T01:50:28.765Z,8.70
2022-12-01T01:53:02.881Z,10.38
2022-12-01T01:55:31.970Z,9.02
2022-12-01T01:57:59.487Z,10.30
2022-12-01T02:00:26.344Z,9.60
2022-12-01T02:02:54.031Z,10.07
2022-12-01T02:05:23.296Z,10.00
2022-12-01T02:07:56.865Z,12.43
2022-12-01T02:10:48.352Z,10.20
2022-12-01T02:13:20.910Z,11.43
2022-12-01T02:16:03.201Z,8.20
2022-12-01T02:18:39.219Z,11.07
2022-12-01T02:21:19.983Z,9.23
2022-12-01T02:24:40.621Z,12.65
2022-12-01T02:27:31.485Z,8.52
2022-12-01T02:30:15.722Z,11.43
2022-12-01T02:32:58.078Z,9.93
2022-12-01T02:35:48.047Z,10.05
2022-12-01T02:38:42.063Z,11.05
2022-12-01T02:41:24.338Z,8.50
2022-12-01T02:44:06.055Z,10.60
2022-12-01T02:46:44.429Z,9.88
2022-12-01T02:49:18.564Z,9.88
2022-12-01T02:51:46.215Z,8.05
2022-12-01T02:54:15.078Z,9.25
2022-12-01T02:56:44.981Z,8.73
2022-12-01T02:59:13.796Z,8.38
2022-12-01T03:01:50.923Z,8.52
2022-12-01T03:04:32.955Z,7.53
2022-12-01T03:07:20.703Z,6.47
2022-12-01T03:10:20.139Z,8.57
2022-12-01T03:13:16.835Z,9.18
2022-12-01T03:15:59.954Z,7.28
2022-12-01T03:19:00.428Z,8.50
2022-12-01T03:21:52.820Z,7.88
2022-12-01T03:24:23.946Z,8.98
2022-12-01T03:26:57.802Z,8.57
2022-12-01T03:29:33.367Z,7.10
2022-12-01T03:32:06.524Z,7.72
2022-12-01T03:34:58.792Z,7.38
2022-12-01T03:37:37.762Z,7.82
2022-12-01T03:40:08.808Z,8.90
2022-12-01T03:42:41.847Z,11.18
2022-12-01T03:45:15.457Z,8.68
2022-12-01T03:47:42.315Z,10.65
2022-12-01T03:50:14.104Z,10.20
2022-12-01T03:52:55.250Z,10.38
2022-12-01T03:55:30.338Z,7.50
2022-12-01T03:58:21.295Z,8.77
2022-12-01T04:00:57.602Z,10.35
2022-12-01T04:03:26.206Z,9.02
2022-12-01T04:05:53.429Z,10.52
2022-12-01T04:08:20.793Z,8.50
2022-12-01T04:10:47.648Z,10.77
2022-12-01T04:13:23.087Z,11.93
2022-12-01T04:15:51.870Z,10.40
2022-12-01T04:18:19.723Z,9.25
2022-12-01T04:20:50.932Z,11.68
2022-12-01T04:23:36.493Z,8.90
2022-12-01T04:26:04.977Z,11.85
2022-12-01T04:28:32.333Z,9.13
2022-12-01T04:30:59.622Z,9.93
2022-12-01T04:33:26.890Z,11.52
2022-12-01T04:36:00.256Z,10.55
2022-12-01T04:38:30.477Z,8.02
2022-12-01T04:40:57.815Z,8.98
2022-12-01T04:43:25.109Z,11.25
2022-12-01T04:45:51.886Z,10.02
2022-12-01T04:48:18.640Z,9.88
2022-12-01T04:50:48.605Z,10.90
2022-12-01T04:53:15.743Z,10.23
2022-12-01T04:55:42.894Z,10.18
2022-12-01T04:58:10.105Z,11.05
2022-12-01T05:00:38.186Z,13.20
2022-12-01T05:03:05.273Z,11.00
2022-12-01T05:05:32.256Z,15.65
2022-12-01T05:07:59.616Z,11.10
2022-12-01T05:10:26.913Z,13.40
2022-12-01T05:12:55.196Z,12.13
2022-12-01T05:15:22.038Z,15.07
2022-12-01T05:17:48.782Z,12.85
2022-12-01T05:20:39.091Z,12.65
2022-12-01T05:23:06.527Z,10.43
2022-12-01T05:25:34.572Z,10.77
2022-12-01T05:28:01.357Z,15.10
2022-12-01T05:30:28.980Z,17.88
2022-12-01T05:32:55.932Z,13.75
2022-12-01T05:35:23.106Z,14.80
2022-12-01T05:37:49.920Z,12.40
2022-12-01T05:40:16.723Z,13.23
2022-12-01T05:42:43.599Z,12.13
2022-12-01T05:45:10.678Z,10.80
2022-12-01T05:47:37.408Z,12.45
2022-12-01T05:50:05.959Z,11.85
2022-12-01T05:52:35.409Z,8.98
2022-12-01T05:55:03.834Z,11.82
2022-12-01T05:57:31.850Z,12.98
2022-12-01T05:59:59.037Z,13.82
2022-12-01T06:02:27.028Z,16.77
2022-12-01T06:04:54.070Z,16.55
2022-12-01T06:07:22.457Z,18.92
2022-12-01T06:09:49.916Z,16.05
2022-12-01T06:12:17.283Z,18.05
2022-12-01T06:14:44.190Z,18.55
2022-12-01T06:17:11.828Z,19.02
2022-12-01T06:19:39.522Z,19.60
2022-12-01T06:22:06.302Z,15.70
2022-12-01T06:24:33.340Z,20.70
2022-12-01T06:27:00.786Z,12.63
2022-12-01T06:29:27.853Z,16.70
2022-12-01T06:31:55.806Z,14.30
2022-12-01T06:34:22.587Z,15.25
2022-12-01T06:36:49.608Z,15.40
2022-12-01T06:39:17.025Z,14.02
2022-12-01T06:41:44.121Z,14.23
2022-12-01T06:44:11.759Z,13.45
2022-12-01T06:46:38.777Z,14.32
2022-12-01T06:49:05.801Z,15.80
2022-12-01T06:51:34.475Z,16.17
2022-12-01T06:54:05.654Z,16.25
2022-12-01T06:56:32.949Z,15.95
2022-12-01T06:59:00.347Z,16.65
2022-12-01T07:01:28.389Z,19.40
2022-12-01T07:03:55.432Z,21.15
2022-12-01T07:06:22.355Z,20.65
2022-12-01T07:08:49.225Z,17.67
2022-12-01T07:11:16.644Z,16.52
2022-12-01T07:13:49.588Z,20.48
2022-12-01T07:16:16.791Z,22.05
2022-12-01T07:18:45.204Z,14.23
2022-12-01T07:21:13.698Z,17.83
2022-12-01T07:23:40.748Z,19.25
2022-12-01T07:26:13.136Z,16.40
2022-12-01T07:28:40.276Z,17.50
2022-12-01T07:31:13.825Z,19.98
2022-12-01T07:33:41.481Z,17.58
2022-12-01T07:36:09.653Z,16.60
2022-12-01T07:38:37.586Z,16.00
2022-12-01T07:41:06.566Z,16.35
2022-12-01T07:43:34.627Z,16.85
2022-12-01T07:46:24.034Z,17.75
2022-12-01T07:48:52.198Z,18.48
2022-12-01T07:51:20.630Z,20.20
2022-12-01T07:53:49.749Z,18.15
2022-12-01T07:56:18.522Z,19.95
2022-12-01T07:58:45.922Z,17.60
2022-12-01T08:01:18.260Z,19.33
2022-12-01T08:03:45.661Z,17.95
2022-12-01T08:06:12.538Z,18.50
2022-12-01T08:08:41.176Z,20.90
2022-12-01T08:11:12.817Z,22.15
2022-12-01T08:13:41.600Z,19.63
2022-12-01T08:16:10.902Z,20.20
2022-12-01T08:18:39.702Z,15.75
2022-12-01T08:21:09.614Z,16.42
2022-12-01T08:23:36.907Z,12.65
2022-12-01T08:26:05.831Z,13.98
2022-12-01T08:28:35.221Z,13.75
2022-12-01T08:31:30.475Z,16.30
2022-12-01T08:33:58.227Z,15.07
2022-12-01T08:36:40.648Z,16.65
2022-12-01T08:39:09.025Z,17.70
2022-12-01T08:41:36.082Z,21.65
2022-12-01T08:44:03.188Z,18.35
2022-12-01T08:46:34.838Z,19.73
2022-12-01T08:49:03.592Z,16.65
2022-12-01T08:51:30.941Z,14.55
2022-12-01T08:53:59.562Z,15.27
2022-12-01T08:56:36.068Z,16.05
2022-12-01T08:59:04.238Z,13.05
2022-12-01T09:01:33.118Z,15.20
2022-12-01T09:04:10.725Z,17.52
2022-12-01T09:06:43.629Z,16.30
2022-12-01T09:09:13.158Z,23.83
2022-12-01T09:11:40.804Z,19.08
2022-12-01T09:14:07.709Z,17.92
2022-12-01T09:16:35.094Z,19.67
2022-12-01T09:19:02.408Z,22.48
2022-12-01T09:21:33.028Z,20.65
2022-12-01T09:24:01.265Z,16.05
2022-12-01T09:26:28.671Z,21.00
2022-12-01T09:28:58.220Z,22.33
2022-12-01T09:31:26.080Z,22.95
2022-12-01T09:33:57.867Z,18.55
2022-12-01T09:36:25.410Z,19.05
2022-12-01T09:38:52.442Z,17.42
2022-12-01T09:41:30.156Z,21.13
2022-12-01T09:44:15.317Z,17.10
2022-12-01T09:46:47.940Z,22.13
2022-12-01T09:49:23.968Z,21.30
2022-12-01T09:51:52.770Z,19.70
2022-12-01T09:54:20.042Z,19.25
2022-12-01T09:56:50.805Z,13.32
2022-12-01T09:59:22.673Z,15.15
2022-12-01T10:02:01.103Z,20.00
2022-12-01T10:04:36.565Z,19.35
2022-12-01T10:07:05.040Z,22.40
2022-12-01T10:09:56.905Z,26.38
2022-12-01T10:12:27.889Z,19.80
2022-12-01T10:15:15.378Z,22.92
2022-12-01T10:18:09.829Z,18.45
2022-12-01T10:20:45.888Z,24.83
2022-12-01T10:23:18.676Z,27.63
2022-12-01T10:25:52.378Z,32.63
2022-12-01T10:28:22.513Z,22.77
2022-12-01T10:30:52.077Z,24.30
2022-12-01T10:33:26.835Z,21.42
2022-12-01T10:35:54.461Z,25.40
2022-12-01T10:38:34.540Z,38.08
2022-12-01T10:41:04.019Z,21.17
2022-12-01T10:43:46.036Z,28.38
2022-12-01T10:46:43.692Z,11.93
2022-12-01T10:49:15.570Z,25.40
2022-12-01T10:51:55.078Z,28.48
2022-12-01T10:54:25.689Z,30.08
2022-12-01T10:56:57.213Z,31.25
2022-12-01T10:59:32.794Z,20.88
2022-12-01T11:02:02.161Z,25.13
2022-12-01T11:04:32.330Z,17.80
2022-12-01T11:07:00.500Z,20.40
2022-12-01T11:09:30.149Z,16.77
2022-12-01T11:12:03.027Z,20.55
2022-12-01T11:14:51.875Z,15.95
2022-12-01T11:17:33.579Z,21.80
2022-12-01T11:20:29.416Z,21.80
2022-12-01T11:23:18.799Z,20.02
2022-12-01T11:26:11.305Z,25.42
2022-12-01T11:29:05.402Z,21.48
2022-12-01T11:31:52.970Z,19.92
2022-12-01T11:34:23.893Z,25.50
2022-12-01T11:36:54.629Z,28.27
2022-12-01T11:39:32.474Z,28.20
2022-12-01T11:42:22.271Z,27.58
2022-12-01T11:45:18.588Z,25.40
2022-12-01T11:48:13.391Z,19.75
2022-12-01T11:50:43.233Z,16.00
2022-12-01T11:53:29.127Z,32.90
2022-12-01T11:56:17.996Z,31.98
2022-12-01T11:58:49.976Z,27.02
2022-12-01T12:01:46.024Z,23.35
2022-12-01T12:04:50.551Z,25.60
2022-12-01T12:07:34.536Z,22.98
2022-12-01T12:10:01.915Z,20.08
2022-12-01T12:12:45.758Z,17.92
2022-12-01T12:15:39.442Z,18.92
2022-12-01T12:18:17.439Z,18.73
2022-12-01T12:21:03.324Z,34.63
2022-12-01T12:23:49.289Z,24.52
2022-12-01T12:26:32.984Z,32.38
2022-12-01T12:29:33.583Z,23.20
2022-12-01T12:32:06.097Z,28.75
2022-12-01T12:34:44.867Z,27.60
2022-12-01T12:37:43.973Z,19.92
2022-12-01T12:40:23.414Z,19.88
2022-12-01T12:42:59.991Z,19.00
2022-12-01T12:45:53.007Z,31.38
2022-12-01T12:48:26.827Z,28.17
2022-12-01T12:51:30.899Z,24.63
2022-12-01T12:54:13.126Z,27.48
2022-12-01T12:56:46.025Z,29.77
2022-12-01T12:59:53.335Z,20.58
2022-12-01T13:02:43.066Z,18.25
2022-12-01T13:05:29.034Z,23.30
2022-12-01T13:08:08.370Z,24.00
2022-12-01T13:11:27.625Z,19.95
2022-12-01T13:14:02.486Z,30.85
2022-12-01T13:16:42.821Z,31.15
2022-12-01T13:19:18.373Z,35.45
2022-12-01T13:21:48.882Z,25.95
2022-12-01T13:24:23.377Z,30.35
2022-12-01T13:26:55.453Z,28.20
2022-12-01T13:29:24.949Z,34.22
2022-12-01T13:31:53.877Z,23.75
2022-12-01T13:34:22.591Z,27.70
2022-12-01T13:36:51.681Z,29.45
2022-12-01T13:39:22.847Z,26.10
2022-12-01T13:42:28.399Z,25.00
2022-12-01T13:45:10.103Z,16.40
2022-12-01T13:47:56.270Z,36.45
2022-12-01T13:50:58.753Z,35.58
2022-12-01T13:53:37.010Z,24.60
2022-12-01T13:56:04.020Z,35.60
2022-12-01T13:58:35.449Z,24.42
2022-12-01T14:01:40.536Z,27.02
2022-12-01T14:04:16.590Z,38.75
2022-12-01T14:07:10.455Z,38.42
2022-12-01T14:09:39.859Z,39.30
2022-12-01T14:12:15.338Z,40.58
2022-12-01T14:14:55.031Z,32.55
2022-12-01T14:17:29.619Z,17.45
2022-12-01T14:20:20.577Z,21.27
2022-12-01T14:23:02.019Z,23.60
2022-12-01T14:25:30.889Z,45.42
2022-12-01T14:28:01.180Z,23.08
2022-12-01T14:30:40.612Z,16.58
2022-12-01T14:33:48.065Z,17.45
2022-12-01T14:36:24.283Z,17.63
2022-12-01T14:39:00.452Z,15.75
2022-12-01T14:41:47.888Z,18.00
2022-12-01T14:44:33.431Z,15.55
2022-12-01T14:47:18.977Z,19.98
2022-12-01T14:50:10.046Z,17.38
2022-12-01T14:52:43.300Z,21.20
2022-12-01T14:55:21.439Z,21.92
2022-12-01T14:57:51.726Z,21.98
2022-12-01T15:00:24.593Z,19.17
2022-12-01T15:02:59.559Z,21.15
2022-12-01T15:05:29.113Z,15.82
2022-12-01T15:08:18.782Z,19.30
2022-12-01T15:10:57.697Z,19.05
2022-12-01T15:13:30.600Z,15.98
2022-12-01T15:16:03.656Z,18.27
2022-12-01T15:18:34.661Z,18.50
2022-12-01T15:21:21.802Z,19.48
2022-12-01T15:24:22.671Z,15.75
2022-12-01T15:26:52.402Z,21.70
2022-12-01T15:29:23.191Z,24.13
2022-12-01T15:31:56.120Z,22.05
2022-12-01T15:34:35.037Z,22.77
2022-12-01T15:37:10.896Z,21.92
2022-12-01T15:39:44.165Z,18.35
2022-12-01T15:42:33.272Z,20.25
2022-12-01T15:45:16.499Z,18.42
2022-12-01T15:47:46.154Z,18.27
2022-12-01T15:50:44.468Z,19.70
2022-12-01T15:53:26.294Z,18.40
2022-12-01T15:55:58.760Z,17.00
2022-12-01T15:58:30.428Z,20.42
2022-12-01T16:01:05.912Z,17.98
2022-12-01T16:03:47.148Z,19.08
2022-12-01T16:06:19.650Z,21.58
2022-12-01T16:09:05.499Z,20.45
2022-12-01T16:11:33.284Z,22.30
2022-12-01T16:14:04.828Z,24.48
2022-12-01T16:16:47.814Z,32.05
2022-12-01T16:19:17.780Z,31.67
2022-12-01T16:21:48.030Z,40.60
2022-12-01T16:24:34.421Z,30.75
2022-12-01T16:27:27.299Z,24.10
2022-12-01T16:30:21.938Z,23.55
2022-12-01T16:32:49.504Z,35.53
2022-12-01T16:35:34.718Z,46.78
2022-12-01T16:38:12.825Z,37.20
2022-12-01T16:40:43.999Z,28.58
2022-12-01T16:43:20.261Z,24.70
2022-12-01T16:45:53.022Z,27.27
2022-12-01T16:48:20.673Z,21.75
2022-12-01T16:50:49.553Z,24.60
2022-12-01T16:53:16.694Z,22.48
2022-12-01T16:55:56.106Z,32.00
2022-12-01T16:58:23.496Z,30.33
2022-12-01T17:00:53.920Z,30.90
2022-12-01T17:03:23.158Z,24.70
2022-12-01T17:05:50.598Z,25.77
2022-12-01T17:08:18.349Z,24.35
2022-12-01T17:10:47.437Z,33.63
2022-12-01T17:13:14.633Z,40.58
2022-12-01T17:15:43.032Z,39.72
2022-12-01T17:18:12.328Z,34.17
2022-12-01T17:20:40.093Z,37.97
2022-12-01T17:23:07.123Z,31.83
2022-12-01T17:25:34.234Z,36.83
2022-12-01T17:28:01.022Z,46.70
2022-12-01T17:30:30.607Z,57.47
2022-12-01T17:32:58.553Z,70.78
2022-12-01T17:35:25.598Z,75.13
2022-12-01T17:37:52.845Z,80.15
2022-12-01T17:40:19.876Z,79.72
2022-12-01T17:42:50.708Z,84.00
2022-12-01T17:45:18.884Z,69.30
2022-12-01T17:47:46.259Z,74.35
2022-12-01T17:50:13.220Z,74.53
2022-12-01T17:52:40.313Z,61.03
2022-12-01T17:55:07.695Z,57.58
2022-12-01T17:57:34.520Z,54.80
2022-12-01T18:00:01.839Z,59.15
2022-12-01T18:02:29.294Z,52.30
2022-12-01T18:04:58.677Z,55.70
2022-12-01T18:07:25.672Z,69.05
2022-12-01T18:09:52.638Z,83.18
2022-12-01T18:12:19.567Z,64.88
2022-12-01T18:14:46.536Z,68.20
2022-12-01T18:17:13.669Z,72.20
2022-12-01T18:19:40.875Z,59.28
2022-12-01T18:22:07.729Z,84.75
2022-12-01T18:24:35.048Z,70.68
2022-12-01T18:27:01.945Z,93.47
2022-12-01T18:29:28.930Z,80.55
2022-12-01T18:31:57.145Z,65.15
2022-12-01T18:34:24.593Z,63.88
2022-12-01T18:36:51.749Z,72.93
2022-12-01T18:39:18.652Z,80.93
2022-12-01T18:41:45.651Z,73.88
2022-12-01T18:44:12.487Z,77.15
2022-12-01T18:46:39.869Z,69.35
2022-12-01T18:49:09.047Z,67.15
2022-12-01T18:51:37.704Z,62.95
2022-12-01T18:54:06.034Z,61.33
2022-12-01T18:56:33.265Z,72.70
2022-12-01T18:59:05.942Z,75.90
2022-12-01T19:01:36.384Z,92.18
2022-12-01T19:04:04.582Z,77.35
2022-12-01T19:06:33.550Z,71.13
2022-12-01T19:09:02.445Z,77.38
2022-12-01T19:11:29.927Z,83.53
2022-12-01T19:13:57.351Z,93.50
2022-12-01T19:16:24.696Z,86.55
2022-12-01T19:18:51.540Z,71.25
2022-12-01T19:21:19.866Z,78.32
2022-12-01T19:23:47.810Z,82.72
2022-12-01T19:26:18.548Z,67.22
2022-12-01T19:28:46.057Z,86.72
2022-12-01T19:31:16.643Z,94.60
2022-12-01T19:33:43.603Z,80.50
2022-12-01T19:36:16.654Z,75.03
2022-12-01T19:38:44.703Z,82.43
2022-12-01T19:41:12.981Z,74.97
2022-12-01T19:43:40.242Z,67.38
2022-12-01T19:46:17.577Z,85.65
2022-12-01T19:48:44.991Z,84.72
2022-12-01T19:51:23.005Z,72.03
2022-12-01T19:53:50.424Z,83.85
2022-12-01T19:56:17.729Z,74.38
2022-12-01T19:58:44.627Z,78.03
2022-12-01T20:01:14.107Z,89.25
2022-12-01T20:03:41.989Z,77.40
2022-12-01T20:06:11.948Z,77.43
2022-12-01T20:08:39.784Z,59.55
2022-12-01T20:11:07.668Z,65.05
2022-12-01T20:13:36.387Z,45.70
2022-12-01T20:16:05.957Z,31.38
2022-12-01T20:18:33.201Z,29.02
2022-12-01T20:21:19.538Z,25.10
2022-12-01T20:23:49.153Z,19.33
2022-12-01T20:26:19.388Z,20.35
2022-12-01T20:28:48.508Z,15.27
2022-12-01T20:31:25.197Z,14.25
2022-12-01T20:33:54.899Z,17.25
2022-12-01T20:36:22.834Z,18.95
2022-12-01T20:38:50.494Z,17.50
2022-12-01T20:41:17.837Z,26.02
2022-12-01T20:43:44.879Z,21.85
2022-12-01T20:46:13.836Z,19.27
2022-12-01T20:48:41.170Z,24.55
2022-12-01T20:51:08.755Z,19.33
2022-12-01T20:53:36.385Z,18.13
2022-12-01T20:56:05.090Z,19.35
2022-12-01T20:58:37.188Z,22.58
2022-12-01T21:01:16.375Z,23.58
2022-12-01T21:03:44.903Z,20.60
2022-12-01T21:06:13.929Z,30.40
2022-12-01T21:08:43.632Z,24.95
2022-12-01T21:11:42.922Z,22.50
2022-12-01T21:14:18.278Z,20.08
2022-12-01T21:16:49.292Z,23.75
2022-12-01T21:19:42.152Z,21.77
2022-12-01T21:22:13.267Z,28.20
2022-12-01T21:24:43.846Z,20.80
2022-12-01T21:27:18.705Z,23.98
2022-12-01T21:29:52.797Z,23.92
2022-12-01T21:32:34.446Z,16.60
2022-12-01T21:35:14.073Z,15.43
2022-12-01T21:37:43.499Z,19.60
2022-12-01T21:40:19.797Z,15.05
2022-12-01T21:42:46.977Z,14.35
2022-12-01T21:45:24.859Z,13.20
2022-12-01T21:47:52.328Z,13.98
2022-12-01T21:50:27.363Z,15.85
2022-12-01T21:52:54.837Z,15.95
2022-12-01T21:55:33.226Z,16.20
2022-12-01T21:58:00.245Z,12.20
2022-12-01T22:00:34.893Z,13.40
2022-12-01T22:03:32.998Z,13.63
2022-12-01T22:06:29.345Z,14.20
2022-12-01T22:09:02.971Z,19.00
2022-12-01T22:11:31.172Z,19.77
2022-12-01T22:14:21.502Z,21.70
2022-12-01T22:17:08.182Z,18.25
2022-12-01T22:19:44.797Z,16.45
2022-12-01T22:22:11.602Z,13.40
2022-12-01T22:24:45.146Z,15.13
2022-12-01T22:27:12.176Z,18.92
2022-12-01T22:29:50.713Z,17.40
2022-12-01T22:32:17.675Z,13.75
2022-12-01T22:34:51.117Z,18.05
2022-12-01T22:37:22.478Z,16.33
2022-12-01T22:39:58.866Z,17.15
2022-12-01T22:42:33.368Z,17.15
2022-12-01T22:45:22.131Z,17.42
2022-12-01T22:47:49.732Z,17.70
2022-12-01T22:50:31.590Z,20.00
2022-12-01T22:53:15.318Z,17.25
2022-12-01T22:55:42.667Z,14.65
2022-12-01T22:58:24.978Z,16.50
2022-12-01T23:00:53.572Z,14.18
2022-12-01T23:03:20.624Z,14.40
2022-12-01T23:05:55.419Z,15.75
2022-12-01T23:08:23.576Z,14.10
2022-12-01T23:10:51.369Z,18.27
2022-12-01T23:13:23.982Z,14.63
2022-12-01T23:15:55.755Z,15.25
2022-12-01T23:18:32.051Z,17.13
2022-12-01T23:21:00.658Z,20.05
2022-12-01T23:23:30.105Z,20.40
2022-12-01T23:25:58.074Z,17.20
2022-12-01T23:28:25.499Z,17.58
2022-12-01T23:30:56.918Z,17.45
2022-12-01T23:33:28.248Z,16.38
2022-12-01T23:36:02.818Z,13.55
2022-12-01T23:38:37.355Z,10.93
2022-12-01T23:41:23.980Z,11.88
2022-12-01T23:43:54.020Z,12.57
2022-12-01T23:46:24.331Z,12.55
2022-12-01T23:49:13.444Z,11.35
2022-12-01T23:51:49.752Z,13.73
2022-12-01T23:54:20.776Z,11.13
2022-12-01T23:56:53.595Z,9.75
2022-12-01T23:59:21.161Z,9.98
